Data for 12/25/2014

Time Sea-Level Adjusted Pressure Absolute Pressure Temperature Relative Humidity Dew Point   
(mb) (inHg) (mb) (inHg) (C) (F) (%) (C) (F)
00:05 1001 29.56 830 24.51 -1.5 29.4 96 -2 28.3
00:10 1001 29.56 831 24.54 -1.5 29.4 96 -2 28.3
00:15 1001 29.56 831 24.54 -1.5 29.2 96 -2.1 28.2
00:20 1001 29.56 831 24.54 -1.7 29 96 -2.3 27.9
00:25 1002 29.59 831 24.54 -1.8 28.8 96 -2.4 27.7
00:30 1002 29.59 831 24.54 -1.8 28.7 96 -2.4 27.7
00:35 1002 29.59 831 24.54 -1.8 28.8 96 -2.4 27.8
00:40 1002 29.59 831 24.54 -1.8 28.8 96 -2.4 27.8
00:45 1002 29.59 831 24.54 -1.8 28.8 96 -2.3 27.8
00:50 1002 29.59 831 24.54 -1.8 28.8 96 -2.3 27.8
00:55 1002 29.59 831 24.54 -1.8 28.8 96 -2.3 27.8
01:00 1002 29.59 831 24.54 -1.8 28.8 96 -2.4 27.8
01:05 1002 29.59 831 24.54 -1.9 28.6 96 -2.4 27.6
01:10 1002 29.59 831 24.54 -2 28.4 96 -2.6 27.4
01:15 1002 29.59 831 24.54 -2.2 28.1 95 -2.8 27
01:20 1002 29.59 831 24.54 -2.3 27.8 95 -3 26.6
01:25 1002 29.59 831 24.54 -2.4 27.7 95 -3.1 26.5
01:30 1002 29.59 831 24.54 -2.4 27.6 94 -3.2 26.2
01:35 1002 29.59 831 24.54 -2.5 27.6 94 -3.3 26
01:40 1002 29.59 831 24.54 -2.5 27.5 93 -3.5 25.7
01:45 1002 29.59 831 24.54 -2.5 27.5 92 -3.6 25.4
01:50 1002 29.59 831 24.54 -2.6 27.4 92 -3.7 25.4
01:55 1002 29.59 831 24.54 -2.7 27.2 93 -3.7 25.3
02:00 1002 29.59 831 24.54 -2.7 27.1 92 -3.8 25.1
02:05 1002 29.59 831 24.54 -2.8 27 92 -3.9 24.9
02:10 1002 29.59 831 24.54 -2.8 27 91 -4 24.8
02:15 1002 29.59 831 24.54 -2.9 26.9 91 -4.1 24.6
02:20 1002 29.59 831 24.54 -2.9 26.8 91 -4.2 24.4
02:25 1002 29.59 831 24.54 -2.9 26.7 89 -4.5 23.9
02:30 1002 29.59 831 24.54 -2.9 26.7 89 -4.5 23.9
02:35 1002 29.59 831 24.54 -3 26.6 88 -4.7 23.6
02:40 1002 29.59 831 24.54 -3 26.5 89 -4.7 23.6
02:45 1002 29.59 831 24.54 -3.1 26.5 89 -4.7 23.5
02:50 1002 29.59 831 24.54 -3.1 26.5 89 -4.6 23.7
02:55 1002 29.59 832 24.57 -3.1 26.4 89 -4.7 23.6
03:00 1002 29.59 832 24.57 -3.1 26.4 89 -4.7 23.5
03:05 1003 29.62 832 24.57 -3.1 26.4 89 -4.7 23.6
03:10 1003 29.62 832 24.57 -3.2 26.3 89 -4.7 23.6
03:15 1003 29.62 832 24.57 -3.2 26.3 88 -4.9 23.2
03:20 1003 29.62 832 24.57 -3.1 26.4 88 -4.8 23.4
03:25 1003 29.62 832 24.57 -3.1 26.5 87 -4.9 23.1
03:30 1003 29.62 832 24.57 -3.1 26.5 86 -5 23
03:35 1003 29.62 832 24.57 -3.1 26.5 87 -5 23
03:40 1003 29.62 833 24.6 -3.1 26.5 86 -5.1 22.9
03:45 1003 29.62 833 24.6 -3.1 26.5 86 -5.1 22.8
03:50 1004 29.65 833 24.6 -3.1 26.5 85 -5.3 22.4
03:55 1004 29.65 833 24.6 -3.1 26.5 84 -5.4 22.2
04:00 1004 29.65 833 24.6 -3.1 26.4 84 -5.5 22.2
04:05 1004 29.65 833 24.6 -3.2 26.3 84 -5.4 22.2
04:10 1004 29.65 833 24.6 -3.2 26.3 84 -5.5 22.2
04:15 1004 29.65 833 24.6 -3.2 26.2 85 -5.4 22.2
04:20 1004 29.65 833 24.6 -3.3 26.1 86 -5.3 22.5
04:25 1004 29.65 834 24.63 -3.4 25.9 87 -5.3 22.5
04:30 1005 29.68 834 24.63 -3.4 25.8 87 -5.2 22.6
04:35 1005 29.68 834 24.63 -3.5 25.8 87 -5.3 22.4
04:40 1005 29.68 834 24.63 -3.5 25.7 88 -5.2 22.6
04:45 1005 29.68 834 24.63 -3.5 25.7 88 -5.2 22.6
04:50 1005 29.68 834 24.63 -3.6 25.6 88 -5.3 22.5
04:55 1005 29.68 834 24.63 -3.6 25.5 89 -5.1 22.7
05:00 1005 29.68 834 24.63 -3.7 25.4 89 -5.2 22.6
05:05 1005 29.68 834 24.63 -3.7 25.4 90 -5.1 22.9
05:10 1005 29.68 834 24.63 -3.8 25.2 90 -5.2 22.6
05:15 1005 29.68 834 24.63 -3.7 25.3 90 -5.1 22.7
05:20 1005 29.68 834 24.63 -3.8 25.2 90 -5.1 22.8
05:25 1005 29.68 835 24.66 -3.8 25.1 90 -5.2 22.6
05:30 1005 29.68 835 24.66 -3.8 25.1 90 -5.2 22.6
05:35 1006 29.71 835 24.66 -3.8 25.1 89 -5.4 22.2
05:40 1006 29.71 835 24.66 -3.8 25.2 89 -5.4 22.3
05:45 1006 29.71 835 24.66 -3.8 25.1 88 -5.5 22
05:50 1006 29.71 835 24.66 -3.7 25.3 86 -5.7 21.7
05:55 1006 29.71 835 24.66 -3.7 25.3 83 -6.1 21
06:00 1006 29.71 835 24.66 -3.7 25.4 83 -6.1 20.9
06:05 1006 29.71 835 24.66 -3.7 25.4 81 -6.5 20.4
06:10 1006 29.71 835 24.66 -3.6 25.5 81 -6.4 20.4
06:15 1006 29.71 836 24.69 -3.7 25.4 81 -6.4 20.4
06:20 1006 29.71 836 24.69 -4 24.9 83 -6.4 20.5
06:25 1006 29.71 836 24.69 -4.1 24.7 85 -6.2 20.9
06:30 1007 29.74 836 24.69 -4.1 24.6 83 -6.6 20.1
06:35 1007 29.74 836 24.69 -4.1 24.6 80 -7 19.4
06:40 1007 29.74 836 24.69 -4.2 24.4 82 -6.9 19.6
06:45 1007 29.74 836 24.69 -4.4 24.1 81 -7.2 19.1
06:50 1007 29.74 836 24.69 -4.4 24 82 -7 19.3
06:55 1007 29.74 836 24.69 -4.6 23.8 82 -7.2 19.1
07:00 1007 29.74 836 24.69 -4.6 23.8 83 -7 19.3
07:05 1007 29.74 836 24.69 -4.6 23.6 83 -7.1 19.2
07:10 1007 29.74 837 24.72 -4.7 23.5 85 -6.9 19.6
07:15 1008 29.77 837 24.72 -4.8 23.4 85 -6.9 19.6
07:20 1008 29.77 837 24.72 -4.8 23.4 85 -6.9 19.5
07:25 1008 29.77 837 24.72 -4.9 23.2 86 -6.9 19.7
07:30 1008 29.77 837 24.72 -4.9 23.2 87 -6.7 19.9
07:35 1008 29.77 837 24.72 -4.9 23.1 87 -6.8 19.7
07:40 1008 29.77 837 24.72 -4.9 23.1 87 -6.7 19.9
07:45 1008 29.77 837 24.72 -4.9 23.1 86 -6.9 19.6
07:50 1008 29.77 837 24.72 -4.9 23.1 85 -7 19.3
07:55 1008 29.77 837 24.72 -4.9 23.2 86 -6.8 19.7
08:00 1008 29.77 837 24.72 -5 23.1 88 -6.7 19.9
08:05 1008 29.77 838 24.75 -4.9 23.1 86 -7 19.4
08:10 1008 29.77 838 24.75 -4.9 23.2 83 -7.3 18.9
08:15 1008 29.77 838 24.75 -4.8 23.4 82 -7.4 18.6
08:20 1008 29.77 838 24.75 -4.7 23.5 78 -8 17.7
08:25 1009 29.8 838 24.75 -4.7 23.6 77 -8.2 17.3
08:30 1009 29.8 838 24.75 -4.6 23.6 76 -8.3 17
08:35 1009 29.8 838 24.75 -4.7 23.6 76 -8.3 17.1
08:40 1009 29.8 838 24.75 -4.7 23.6 76 -8.3 17.1
08:45 1009 29.8 838 24.75 -4.7 23.5 77 -8.2 17.2
08:50 1009 29.8 838 24.75 -4.8 23.4 77 -8.3 17.1
08:55 1009 29.8 838 24.75 -4.7 23.6 76 -8.3 17
09:00 1009 29.8 838 24.75 -4.7 23.6 76 -8.3 17.1
09:05 1009 29.8 838 24.75 -4.7 23.6 75 -8.4 16.9
09:10 1009 29.8 838 24.75 -4.7 23.6 76 -8.3 17.1
09:15 1009 29.8 839 24.78 -4.7 23.6 76 -8.3 17
09:20 1009 29.8 839 24.78 -4.6 23.7 74 -8.6 16.6
09:25 1009 29.8 839 24.78 -4.6 23.8 74 -8.5 16.8
09:30 1010 29.83 839 24.78 -4.6 23.7 75 -8.4 16.9
09:35 1010 29.83 839 24.78 -4.6 23.6 75 -8.4 16.8
09:40 1010 29.83 839 24.78 -4.7 23.6 76 -8.3 17.1
09:45 1010 29.83 839 24.78 -4.8 23.4 79 -7.9 17.8
09:50 1010 29.83 839 24.78 -4.8 23.4 77 -8.2 17.2
09:55 1010 29.83 839 24.78 -4.7 23.5 77 -8.2 17.2
10:00 1010 29.83 839 24.78 -4.7 23.6 79 -7.8 17.9
10:05 1010 29.83 840 24.81 -4.7 23.5 80 -7.6 18.3
10:10 1010 29.83 840 24.81 -4.8 23.4 81 -7.5 18.5
10:15 1010 29.83 840 24.81 -4.7 23.5 81 -7.5 18.6
10:20 1011 29.85 840 24.81 -4.7 23.5 81 -7.5 18.6
10:25 1011 29.85 840 24.81 -4.7 23.6 82 -7.3 18.8
10:30 1011 29.85 840 24.81 -4.6 23.7 80 -7.5 18.5
10:35 1011 29.85 840 24.81 -4.7 23.6 80 -7.6 18.4
10:40 1011 29.85 840 24.81 -4.6 23.7 80 -7.6 18.4
10:45 1011 29.85 840 24.81 -4.5 23.8 78 -7.9 17.8
10:50 1011 29.85 840 24.81 -4.6 23.7 78 -8 17.7
10:55 1011 29.85 840 24.81 -4.6 23.8 79 -7.8 18
11:00 1011 29.85 840 24.81 -4.7 23.6 79 -7.8 17.9
11:05 1011 29.85 841 24.83 -4.7 23.5 79 -7.7 18.1
11:10 1012 29.88 841 24.83 -4.7 23.6 79 -7.8 18
11:15 1012 29.88 841 24.83 -4.6 23.7 79 -7.7 18.1
11:20 1012 29.88 841 24.83 -4.7 23.5 81 -7.5 18.5
11:25 1012 29.88 841 24.83 -4.8 23.3 79 -7.9 17.8
11:30 1012 29.88 841 24.83 -4.8 23.4 80 -7.7 18.1
11:35 1012 29.88 841 24.83 -4.8 23.4 79 -7.9 17.8
11:40 1012 29.88 841 24.83 -4.8 23.4 79 -7.9 17.8
11:45 1012 29.88 841 24.83 -4.7 23.5 78 -7.9 17.7
11:50 1012 29.88 841 24.83 -4.7 23.5 77 -8.2 17.3
11:55 1012 29.88 841 24.83 -4.7 23.5 76 -8.2 17.2
12:00 1012 29.88 841 24.83 -4.6 23.8 75 -8.4 17
12:05 1012 29.88 841 24.83 -4.5 23.9 74 -8.6 16.6
12:10 1012 29.88 841 24.83 -4.5 23.9 74 -8.4 16.9
12:15 1012 29.88 841 24.83 -4.5 23.8 74 -8.4 16.8
12:20 1012 29.88 841 24.83 -4.5 23.9 75 -8.3 17
12:25 1012 29.88 841 24.83 -4.5 24 75 -8.3 17.1
12:30 1012 29.88 841 24.83 -4.4 24 75 -8.3 17
12:35 1012 29.88 841 24.83 -4.4 24.1 74 -8.4 16.9
12:40 1012 29.88 841 24.83 -4.5 23.9 74 -8.5 16.8
12:45 1012 29.88 841 24.83 -4.4 24.1 74 -8.3 17.1
12:50 1012 29.88 841 24.83 -4.1 24.6 76 -7.8 17.9
12:55 1012 29.88 841 24.83 -4.2 24.4 80 -7.2 19
13:00 1012 29.88 841 24.83 -4.7 23.6 81 -7.4 18.7
13:05 1012 29.88 841 24.83 -4.6 23.7 82 -7.2 19.1
13:10 1012 29.88 841 24.83 -4.8 23.4 82 -7.4 18.7
13:15 1012 29.88 841 24.83 -4.7 23.5 82 -7.3 18.9
13:20 1012 29.88 841 24.83 -4.5 23.9 80 -7.4 18.7
13:25 1012 29.88 841 24.83 -4.6 23.8 80 -7.6 18.4
13:30 1012 29.88 841 24.83 -4.4 24.1 77 -7.8 18
13:35 1012 29.88 841 24.83 -4.2 24.5 77 -7.7 18.2
13:40 1012 29.88 841 24.83 -4 24.8 77 -7.5 18.5
13:45 1012 29.88 841 24.83 -4.3 24.2 76 -7.9 17.8
13:50 1012 29.88 841 24.83 -4.3 24.3 75 -8 17.6
13:55 1012 29.88 841 24.83 -4 24.8 75 -7.8 17.9
14:00 1012 29.88 841 24.83 -3.9 25 74 -7.8 17.9
14:05 1012 29.88 842 24.86 -4 24.8 75 -7.8 18
14:10 1012 29.88 842 24.86 -3.9 24.9 75 -7.7 18.2
14:15 1012 29.88 842 24.86 -3.9 24.9 73 -8 17.6
14:20 1012 29.88 842 24.86 -4.1 24.7 74 -8.1 17.5
14:25 1013 29.91 842 24.86 -4.2 24.4 74 -8.1 17.4
14:30 1013 29.91 842 24.86 -4.3 24.2 76 -8 17.6
14:35 1013 29.91 842 24.86 -4.4 24.1 76 -8.1 17.4
14:40 1013 29.91 842 24.86 -4.7 23.5 77 -8.2 17.2
14:45 1013 29.91 842 24.86 -4.7 23.5 78 -8.1 17.5
14:50 1013 29.91 842 24.86 -4.8 23.3 77 -8.3 17.1
14:55 1013 29.91 842 24.86 -5.1 22.9 78 -8.3 17.1
15:00 1013 29.91 842 24.86 -5.2 22.6 78 -8.5 16.8
15:05 1013 29.91 842 24.86 -5.2 22.6 78 -8.4 16.9
15:10 1013 29.91 842 24.86 -5.1 22.8 78 -8.4 16.9
15:15 1013 29.91 842 24.86 -5.2 22.7 78 -8.5 16.7
15:20 1013 29.91 842 24.86 -5.1 22.9 77 -8.6 16.5
15:25 1013 29.91 842 24.86 -5.2 22.7 77 -8.6 16.4
15:30 1013 29.91 842 24.86 -5.1 22.7 76 -8.7 16.4
15:35 1013 29.91 842 24.86 -5.2 22.7 78 -8.4 16.9
15:40 1013 29.91 842 24.86 -5.2 22.7 77 -8.6 16.6
15:45 1013 29.91 842 24.86 -5.2 22.6 77 -8.6 16.4
15:50 1013 29.91 842 24.86 -5.2 22.6 77 -8.7 16.4
15:55 1013 29.91 843 24.89 -5.1 22.7 76 -8.7 16.4
16:00 1013 29.91 843 24.89 -5.1 22.7 77 -8.6 16.6
16:05 1013 29.91 843 24.89 -5.1 22.8 77 -8.5 16.7
16:10 1014 29.94 843 24.89 -5.2 22.6 78 -8.4 16.9
16:15 1014 29.94 843 24.89 -5 22.9 76 -8.7 16.4
16:20 1014 29.94 843 24.89 -4.7 23.6 74 -8.6 16.6
16:25 1014 29.94 843 24.89 -4.7 23.5 75 -8.6 16.6
16:30 1014 29.94 843 24.89 -5 23 74 -8.9 16
16:35 1014 29.94 843 24.89 -5.1 22.8 74 -9.1 15.7
16:40 1014 29.94 843 24.89 -5.3 22.5 75 -9.1 15.7
16:45 1014 29.94 843 24.89 -5.5 22 75 -9.3 15.3
16:50 1014 29.94 843 24.89 -5.6 21.9 76 -9.3 15.3
16:55 1014 29.94 843 24.89 -5.7 21.8 76 -9.3 15.3
17:00 1014 29.94 843 24.89 -5.7 21.7 76 -9.3 15.2
17:05 1014 29.94 843 24.89 -5.7 21.8 76 -9.3 15.3
17:10 1014 29.94 844 24.92 -5.7 21.7 76 -9.3 15.2
17:15 1014 29.94 844 24.92 -5.9 21.4 76 -9.4 15.1
17:20 1015 29.97 844 24.92 -6 21.2 77 -9.4 15
17:25 1015 29.97 844 24.92 -6.2 20.9 78 -9.4 15
17:30 1015 29.97 844 24.92 -6.2 20.9 78 -9.4 15
17:35 1015 29.97 844 24.92 -6.2 20.8 78 -9.4 15.2
17:40 1015 29.97 844 24.92 -6.2 20.8 79 -9.4 15.1
17:45 1015 29.97 844 24.92 -6.2 20.8 78 -9.4 15
17:50 1015 29.97 844 24.92 -6.2 20.9 78 -9.4 15.1
17:55 1015 29.97 844 24.92 -6.3 20.7 78 -9.4 15
18:00 1015 29.97 844 24.92 -6.2 20.8 78 -9.4 15
18:05 1015 29.97 844 24.92 -6.2 20.8 78 -9.4 15.1
18:10 1015 29.97 844 24.92 -6.3 20.6 79 -9.4 15.2
18:15 1015 29.97 844 24.92 -6.4 20.5 79 -9.4 15
18:20 1015 29.97 844 24.92 -6.3 20.6 79 -9.5 15
18:25 1015 29.97 844 24.92 -6.3 20.6 79 -9.4 15
18:30 1015 29.97 844 24.92 -6.3 20.7 79 -9.4 15.1
18:35 1015 29.97 844 24.92 -6.2 20.8 79 -9.3 15.3
18:40 1015 29.97 844 24.92 -6.2 20.9 79 -9.3 15.3
18:45 1015 29.97 844 24.92 -6.2 20.9 79 -9.3 15.3
18:50 1015 29.97 844 24.92 -6.2 20.9 79 -9.3 15.3
18:55 1015 29.97 844 24.92 -6.1 21 79 -9.2 15.4
19:00 1015 29.97 844 24.92 -6.1 21 79 -9.2 15.4
19:05 1015 29.97 844 24.92 -6.1 21 79 -9.2 15.4
19:10 1015 29.97 844 24.92 -6.1 21.1 78 -9.3 15.3
19:15 1015 29.97 844 24.92 -6 21.2 78 -9.3 15.3
19:20 1015 29.97 844 24.92 -6 21.2 78 -9.2 15.4
19:25 1015 29.97 844 24.92 -5.9 21.3 77 -9.3 15.3
19:30 1015 29.97 844 24.92 -5.9 21.4 77 -9.3 15.2
19:35 1015 29.97 844 24.92 -5.9 21.4 77 -9.3 15.3
19:40 1015 29.97 844 24.92 -5.8 21.5 77 -9.2 15.4
19:45 1015 29.97 844 24.92 -5.8 21.6 77 -9.3 15.3
19:50 1015 29.97 844 24.92 -5.8 21.5 77 -9.2 15.4
19:55 1015 29.97 844 24.92 -5.8 21.5 77 -9.3 15.3
20:00 1015 29.97 844 24.92 -5.8 21.6 77 -9.3 15.3
20:05 1015 29.97 844 24.92 -5.7 21.7 77 -9.2 15.4
20:10 1015 29.97 845 24.95 -5.7 21.7 77 -9.1 15.6
20:15 1015 29.97 845 24.95 -5.8 21.6 78 -9.1 15.7
20:20 1015 29.97 845 24.95 -5.9 21.4 78 -9.1 15.7
20:25 1015 29.97 845 24.95 -6 21.3 79 -9.1 15.7
20:30 1015 29.97 845 24.95 -6 21.2 80 -9 15.8
20:35 1015 29.97 845 24.95 -6.1 21 79 -9.1 15.6
20:40 1015 29.97 845 24.95 -6.1 21 80 -9.1 15.6
20:45 1015 29.97 845 24.95 -6.2 20.9 80 -9.1 15.7
20:50 1015 29.97 845 24.95 -6.3 20.6 81 -9.1 15.6
20:55 1015 29.97 845 24.95 -6.4 20.4 81 -9.2 15.5
21:00 1016 30 845 24.95 -6.4 20.4 80 -9.3 15.3
21:05 1016 30 845 24.95 -6.4 20.6 80 -9.2 15.4
21:10 1016 30 845 24.95 -6.4 20.5 81 -9.2 15.4
21:15 1016 30 845 24.95 -6.4 20.5 80 -9.2 15.4
21:20 1016 30 845 24.95 -6.4 20.5 81 -9.1 15.5
21:25 1016 30 845 24.95 -6.5 20.3 81 -9.2 15.4
21:30 1016 30 845 24.95 -6.6 20.2 82 -9.2 15.5
21:35 1016 30 845 24.95 -6.6 20.2 82 -9.2 15.5
21:40 1016 30 845 24.95 -6.6 20.1 82 -9.2 15.5
21:45 1016 30 845 24.95 -6.7 19.9 82 -9.3 15.3
21:50 1016 30 845 24.95 -6.9 19.6 82 -9.4 15.1
21:55 1016 30 845 24.95 -7 19.3 83 -9.5 14.9
22:00 1016 30 845 24.95 -7.1 19.2 83 -9.5 14.9
22:05 1016 30 845 24.95 -7.2 19 83 -9.6 14.8
22:10 1016 30 845 24.95 -7.3 18.8 84 -9.7 14.6
22:15 1016 30 845 24.95 -7.6 18.4 85 -9.7 14.5
22:20 1016 30 845 24.95 -7.8 18 86 -9.7 14.6
22:25 1016 30 845 24.95 -8 17.6 88 -9.7 14.5
22:30 1016 30 845 24.95 -7.9 17.8 88 -9.6 14.7
22:35 1016 30 845 24.95 -7.9 17.8 87 -9.7 14.6
22:40 1016 30 845 24.95 -7.8 17.9 86 -9.8 14.4
22:45 1016 30 845 24.95 -8.1 17.5 87 -9.8 14.3
22:50 1016 30 845 24.95 -8 17.6 87 -9.8 14.4
22:55 1016 30 845 24.95 -7.8 17.9 85 -9.9 14.2
23:00 1016 30 845 24.95 -8.1 17.4 86 -10.1 13.8
23:05 1016 30 845 24.95 -8.6 16.6 88 -10.3 13.5
23:10 1016 30 845 24.95 -8.6 16.6 88 -10.3 13.5
23:15 1016 30 845 24.95 -8.7 16.3 87 -10.5 13.1
23:20 1016 30 845 24.95 -9.1 15.7 87 -10.9 12.4
23:25 1016 30 845 24.95 -9.3 15.4 90 -10.6 12.9
23:30 1016 30 845 24.95 -9 15.8 89 -10.5 13.1
23:35 1016 30 845 24.95 -9.1 15.6 89 -10.7 12.8
23:40 1016 30 845 24.95 -9.2 15.5 88 -10.9 12.4
23:45 1016 30 845 24.95 -9.2 15.5 88 -10.8 12.5
23:50 1016 30 845 24.95 -9 15.7 88 -10.7 12.7
23:55 1016 30 845 24.95 -9.1 15.7 87 -10.8 12.6
24:00 1016 30 845 24.95 -9.1 15.6 87 -11 12.2